createdAt,value
2019-05-22T00:02:41.392Z,14
2019-05-22T00:07:43.832Z,13.9
2019-05-22T00:12:47.229Z,13.9
2019-05-22T00:17:48.755Z,13.8
2019-05-22T00:22:51.253Z,13.8
2019-05-22T00:27:53.665Z,13.8
2019-05-22T00:32:56.137Z,13.7
2019-05-22T00:37:58.579Z,13.6
2019-05-22T00:43:05.094Z,13.6
2019-05-22T00:48:03.497Z,13.6
2019-05-22T00:53:05.969Z,13.6
2019-05-22T00:58:08.452Z,13.5
2019-05-22T01:03:11.009Z,13.5
2019-05-22T01:08:13.354Z,13.6
2019-05-22T01:13:15.775Z,13.6
2019-05-22T01:23:20.719Z,13.5
2019-05-22T01:28:23.158Z,13.4
2019-05-22T01:33:25.622Z,13.3
2019-05-22T01:38:28.089Z,13.3
2019-05-22T01:43:30.590Z,13.3
2019-05-22T01:48:33.001Z,13.2
2019-05-22T01:53:35.448Z,13.3
2019-05-22T01:58:38.042Z,13.3
2019-05-22T02:03:40.398Z,13.3
2019-05-22T02:08:42.818Z,13.4
2019-05-22T02:13:45.553Z,13.4
2019-05-22T02:18:47.753Z,13.3
2019-05-22T02:23:50.199Z,13.3
2019-05-22T02:28:52.717Z,13.2
2019-05-22T02:33:55.124Z,13.2
2019-05-22T02:38:57.676Z,13.2
2019-05-22T02:44:00.047Z,13.2
2019-05-22T02:49:02.501Z,13.1
2019-05-22T02:54:05.075Z,13.1
2019-05-22T02:59:07.407Z,13.1
2019-05-22T03:04:09.855Z,13
2019-05-22T03:09:12.338Z,13
2019-05-22T03:14:14.799Z,13
2019-05-22T03:19:17.239Z,13
2019-05-22T03:24:19.713Z,13
2019-05-22T03:29:22.164Z,13
2019-05-22T03:34:24.607Z,12.9
2019-05-22T03:39:27.075Z,12.9
2019-05-22T03:44:29.572Z,12.9
2019-05-22T03:49:31.995Z,12.8
2019-05-22T03:54:34.470Z,12.7
2019-05-22T03:59:36.909Z,12.8
2019-05-22T04:04:39.358Z,12.7
2019-05-22T04:09:41.857Z,12.8
2019-05-22T04:14:44.351Z,12.8
2019-05-22T04:19:49.840Z,12.8
2019-05-22T04:24:49.253Z,12.7
2019-05-22T04:29:51.710Z,12.7
2019-05-22T04:34:54.166Z,12.6
2019-05-22T04:39:56.567Z,12.6
2019-05-22T04:44:59.056Z,12.6
2019-05-22T04:50:06.996Z,12.5
2019-05-22T04:55:04.011Z,12.5
2019-05-22T05:00:06.484Z,12.5
2019-05-22T05:05:09.121Z,12.5
2019-05-22T05:10:11.400Z,12.4
2019-05-22T05:15:13.772Z,12.4
2019-05-22T05:20:22.309Z,12.4
2019-05-22T05:25:18.770Z,12.4
2019-05-22T05:30:21.147Z,12.4
2019-05-22T05:35:23.610Z,12.4
2019-05-22T05:40:26.060Z,12.4
2019-05-22T05:45:28.602Z,12.4
2019-05-22T05:50:39.268Z,12.3
2019-05-22T05:55:33.546Z,12.3
2019-05-22T06:00:35.977Z,12.2
2019-05-22T06:05:38.349Z,12.3
2019-05-22T06:10:40.850Z,12.3
2019-05-22T06:15:46.849Z,12.4
2019-05-22T06:21:01.162Z,12.4
2019-05-22T06:25:48.210Z,12.4
2019-05-22T06:30:50.743Z,12.3
2019-05-22T06:35:53.103Z,12.4
2019-05-22T06:40:55.565Z,12.3
2019-05-22T06:51:00.503Z,12.1
2019-05-22T06:56:02.957Z,12.1
2019-05-22T07:01:05.394Z,12.1
2019-05-22T07:06:08.318Z,12.1
2019-05-22T07:11:10.329Z,12
2019-05-22T07:16:12.760Z,12
2019-05-22T07:21:15.219Z,12
2019-05-22T07:26:17.690Z,11.9
2019-05-22T07:31:20.174Z,11.9
2019-05-22T07:36:22.596Z,11.9
2019-05-22T07:41:25.052Z,11.8
2019-05-22T07:46:30.770Z,11.7
2019-05-22T07:56:32.415Z,11.7
2019-05-22T08:01:34.914Z,11.7
2019-05-22T08:11:39.838Z,11.8
2019-05-22T08:16:42.262Z,11.8
2019-05-22T08:21:44.715Z,11.9
2019-05-22T08:26:54.086Z,11.9
2019-05-22T08:31:50.233Z,11.9
2019-05-22T08:36:52.245Z,11.9
2019-05-22T08:41:54.551Z,11.9
2019-05-22T08:46:57.064Z,12
2019-05-22T09:02:04.416Z,12.1
2019-05-22T09:07:06.926Z,12.2
2019-05-22T09:12:09.300Z,12.1
2019-05-22T09:17:11.861Z,12.2
2019-05-22T09:22:14.251Z,12.2
2019-05-22T09:27:16.670Z,12.3
2019-05-22T09:32:19.137Z,12.3
2019-05-22T09:37:21.595Z,12.4
2019-05-22T09:42:24.041Z,12.4
2019-05-22T09:47:26.514Z,12.5
2019-05-22T09:52:29.044Z,12.6
2019-05-22T10:02:33.878Z,12.8
2019-05-22T10:07:36.374Z,12.9
2019-05-22T10:12:38.777Z,12.9
2019-05-22T10:17:41.247Z,13.1
2019-05-22T10:22:43.695Z,13.2
2019-05-22T10:27:46.154Z,13.2
2019-05-22T10:32:48.654Z,13.2
2019-05-22T10:37:51.109Z,13.2
2019-05-22T10:42:53.567Z,13.3
2019-05-22T10:47:56.025Z,13.3
2019-05-22T10:52:58.525Z,13.4
2019-05-22T10:58:00.957Z,13.4
2019-05-22T11:03:03.440Z,13.3
2019-05-22T11:08:05.850Z,13.2
2019-05-22T11:13:08.315Z,13.1
2019-05-22T11:18:10.744Z,13.1
2019-05-22T11:23:13.281Z,13.2
2019-05-22T11:28:15.664Z,13.3
2019-05-22T11:33:18.125Z,13.4
2019-05-22T11:38:20.563Z,13.6
2019-05-22T11:43:23.037Z,13.7
2019-05-22T11:48:25.517Z,13.8
2019-05-22T11:53:28.765Z,13.8
2019-05-22T11:58:30.456Z,13.9
2019-05-22T12:03:32.903Z,13.7
2019-05-22T12:08:35.381Z,13.7
2019-05-22T12:13:37.785Z,13.8
2019-05-22T12:18:40.266Z,13.8
2019-05-22T12:23:42.810Z,13.9
2019-05-22T12:28:45.208Z,14
2019-05-22T12:33:47.624Z,14.4
2019-05-22T12:38:50.131Z,14.9
2019-05-22T12:43:52.533Z,15.4
2019-05-22T12:48:54.994Z,15.4
2019-05-22T12:53:57.615Z,15.6
2019-05-22T12:58:59.883Z,15.9
2019-05-22T13:04:02.628Z,16.1
2019-05-22T13:09:04.858Z,16.3
2019-05-22T13:14:07.361Z,16.3
2019-05-22T13:19:09.741Z,16.4
2019-05-22T13:24:12.311Z,16.5
2019-05-22T13:29:14.660Z,16.7
2019-05-22T13:34:17.127Z,17
2019-05-22T13:39:19.662Z,17.3
2019-05-22T13:44:22.068Z,17.6
2019-05-22T13:49:24.490Z,17.8
2019-05-22T13:54:27.408Z,17.6
2019-05-22T13:59:29.391Z,17.4
2019-05-22T14:04:31.928Z,17
2019-05-22T14:09:34.447Z,16.6
2019-05-22T14:14:36.767Z,16.2
2019-05-22T14:19:39.254Z,16
2019-05-22T14:24:41.888Z,15.6
2019-05-22T14:29:44.176Z,15.3
2019-05-22T14:34:46.833Z,15.1
2019-05-22T14:39:49.141Z,15
2019-05-22T14:44:51.568Z,14.9
2019-05-22T14:49:54.022Z,15
2019-05-22T14:54:56.520Z,15.1
2019-05-22T14:59:58.882Z,15.3
2019-05-22T15:05:01.382Z,15.6
2019-05-22T15:10:03.841Z,15.7
2019-05-22T15:15:06.425Z,15.7
2019-05-22T15:20:08.726Z,15.6
2019-05-22T15:25:11.254Z,15.5
2019-05-22T15:30:13.686Z,15.1
2019-05-22T15:35:16.107Z,14.9
2019-05-22T15:40:18.596Z,14.7
2019-05-22T15:45:21.078Z,14.5
2019-05-22T15:50:26.737Z,14.4
2019-05-22T15:55:26.157Z,14.2
2019-05-22T16:00:28.426Z,14
2019-05-22T16:05:30.842Z,13.8
2019-05-22T16:10:33.332Z,13.8
2019-05-22T16:15:35.757Z,13.7
2019-05-22T16:20:38.294Z,13.7
2019-05-22T16:25:40.766Z,13.6
2019-05-22T16:30:43.157Z,13.5
2019-05-22T16:35:45.620Z,13.3
2019-05-22T16:40:48.054Z,13.2
2019-05-22T16:45:50.546Z,13.1
2019-05-22T16:50:52.957Z,12.9
2019-05-22T16:55:55.490Z,12.8
2019-05-22T17:06:00.350Z,12.5
2019-05-22T17:11:02.783Z,12.4
2019-05-22T17:16:05.254Z,12.3
2019-05-22T17:21:07.771Z,12.2
2019-05-22T17:26:10.177Z,12.1
2019-05-22T17:31:12.610Z,12
2019-05-22T17:36:15.106Z,12
2019-05-22T17:41:17.516Z,11.9
2019-05-22T17:46:20.005Z,11.8
2019-05-22T17:51:22.582Z,11.7
2019-05-22T17:56:24.907Z,11.7
2019-05-22T18:01:27.371Z,11.6
2019-05-22T18:06:29.835Z,11.6
2019-05-22T18:11:32.315Z,11.6
2019-05-22T18:16:34.761Z,11.6
2019-05-22T18:21:37.231Z,11.6
2019-05-22T18:26:39.703Z,11.5
2019-05-22T18:31:42.149Z,11.4
2019-05-22T18:36:44.602Z,11.4
2019-05-22T18:41:47.014Z,11.3
2019-05-22T18:46:49.487Z,11.3
2019-05-22T18:51:51.989Z,11.3
2019-05-22T18:56:54.419Z,11.3
2019-05-22T19:01:56.855Z,11.4
2019-05-22T19:06:59.387Z,11.4
2019-05-22T19:12:01.784Z,11.4
2019-05-22T19:17:04.325Z,11.4
2019-05-22T19:22:06.773Z,11.4
2019-05-22T19:27:09.245Z,11.4
2019-05-22T19:32:11.630Z,11.3
2019-05-22T19:37:14.082Z,11.4
2019-05-22T19:42:16.515Z,11.4
2019-05-22T19:47:18.965Z,11.4
2019-05-22T19:52:22.682Z,11.4
2019-05-22T19:57:23.931Z,11.4
2019-05-22T20:02:26.363Z,11.3
2019-05-22T20:07:28.821Z,11.4
2019-05-22T20:12:31.297Z,11.3
2019-05-22T20:17:33.743Z,11.3
2019-05-22T20:22:36.229Z,11.3
2019-05-22T20:27:38.626Z,11.3
2019-05-22T20:32:41.130Z,11.3
2019-05-22T20:37:43.565Z,11.3
2019-05-22T20:42:46.022Z,11.3
2019-05-22T20:47:48.497Z,11.3
2019-05-22T20:52:51.010Z,11.3
2019-05-22T20:57:53.427Z,11.4
2019-05-22T21:02:55.894Z,11.4
2019-05-22T21:07:58.319Z,11.3
2019-05-22T21:13:00.753Z,11.4
2019-05-22T21:18:03.278Z,11.4
2019-05-22T21:23:05.714Z,11.4
2019-05-22T21:28:08.277Z,11.3
2019-05-22T21:33:10.593Z,11.3
2019-05-22T21:38:13.075Z,11.2
2019-05-22T21:43:15.524Z,11.2
2019-05-22T21:48:17.965Z,11.2
2019-05-22T21:53:20.438Z,11.2
2019-05-22T21:58:22.911Z,11.1
2019-05-22T22:03:25.331Z,11.1
2019-05-22T22:08:27.816Z,11.1
2019-05-22T22:13:30.263Z,11
2019-05-22T22:18:32.726Z,11
2019-05-22T22:23:35.187Z,10.9
2019-05-22T22:28:37.615Z,10.8
2019-05-22T22:33:40.079Z,10.7
2019-05-22T22:38:42.563Z,10.7
2019-05-22T22:43:45.020Z,10.7
2019-05-22T22:48:47.492Z,10.6
2019-05-22T22:53:49.948Z,10.5
2019-05-22T22:58:52.506Z,10.5
2019-05-22T23:03:54.831Z,10.4
2019-05-22T23:08:57.311Z,10.4
2019-05-22T23:13:59.801Z,10.4
2019-05-22T23:19:02.216Z,10.4
2019-05-22T23:24:04.688Z,10.3
2019-05-22T23:29:07.185Z,10.2
2019-05-22T23:34:09.576Z,10.3
2019-05-22T23:39:12.081Z,10.3
2019-05-22T23:44:14.504Z,10.3
2019-05-22T23:49:16.944Z,10.2
2019-05-22T23:54:19.410Z,10.2
2019-05-22T23:59:21.873Z,10.2
